createdAt,value
2019-02-04T00:00:26.190Z,1018.43
2019-02-04T00:01:26.179Z,1018.47
2019-02-04T00:02:26.165Z,1018.45
2019-02-04T00:03:26.156Z,1018.52
2019-02-04T00:04:26.140Z,1018.52
2019-02-04T00:05:26.130Z,1018.51
2019-02-04T00:06:26.115Z,1018.46
2019-02-04T00:07:26.105Z,1018.48
2019-02-04T00:08:26.089Z,1018.46
2019-02-04T00:09:26.078Z,1018.49
2019-02-04T00:10:26.066Z,1018.48
2019-02-04T00:11:26.053Z,1018.47
2019-02-04T00:12:26.041Z,1018.46
2019-02-04T00:13:26.028Z,1018.50
2019-02-04T00:14:26.018Z,1018.45
2019-02-04T00:15:26.007Z,1018.51
2019-02-04T00:16:25.993Z,1018.50
2019-02-04T00:17:25.979Z,1018.54
2019-02-04T00:18:25.966Z,1018.57
2019-02-04T00:19:25.956Z,1018.55
2019-02-04T00:20:25.942Z,1018.57
2019-02-04T00:21:25.930Z,1018.55
2019-02-04T00:22:25.917Z,1018.58
2019-02-04T00:23:25.906Z,1018.59
2019-02-04T00:24:25.895Z,1018.62
2019-02-04T00:25:25.883Z,1018.64
2019-02-04T00:26:25.866Z,1018.62
2019-02-04T00:27:25.853Z,1018.67
2019-02-04T00:28:25.842Z,1018.70
2019-02-04T00:29:25.828Z,1018.69
2019-02-04T00:30:25.818Z,1018.70
2019-02-04T00:31:25.805Z,1018.73
2019-02-04T00:32:25.792Z,1018.71
2019-02-04T00:33:25.781Z,1018.71
2019-02-04T00:34:25.769Z,1018.81
2019-02-04T00:35:25.755Z,1018.77
2019-02-04T00:36:25.742Z,1018.78
2019-02-04T00:37:25.729Z,1018.78
2019-02-04T00:38:25.717Z,1018.78
2019-02-04T00:39:25.703Z,1018.80
2019-02-04T00:40:25.691Z,1018.75
2019-02-04T00:41:25.681Z,1018.78
2019-02-04T00:42:25.668Z,1018.79
2019-02-04T00:43:25.654Z,1018.76
2019-02-04T00:44:25.641Z,1018.76
2019-02-04T00:45:25.627Z,1018.74
2019-02-04T00:46:25.614Z,1018.77
2019-02-04T00:47:25.602Z,1018.81
2019-02-04T00:48:25.590Z,1018.83
2019-02-04T00:49:25.578Z,1018.85
2019-02-04T00:50:25.570Z,1018.86
2019-02-04T00:51:25.554Z,1018.89
2019-02-04T00:52:25.541Z,1018.90
2019-02-04T00:53:25.528Z,1018.92
2019-02-04T00:54:25.521Z,1018.94
2019-02-04T00:55:25.504Z,1018.97
2019-02-04T00:56:25.490Z,1019.01
2019-02-04T00:57:25.479Z,1018.99
2019-02-04T00:58:25.463Z,1019.04
2019-02-04T00:59:25.452Z,1019.02
2019-02-04T01:00:26.845Z,1019.07
2019-02-04T01:01:25.427Z,1019.07
2019-02-04T01:02:25.413Z,1019.07
2019-02-04T01:03:25.403Z,1019.07
2019-02-04T01:04:25.390Z,1019.14
2019-02-04T01:05:25.376Z,1019.10
2019-02-04T01:06:25.366Z,1019.14
2019-02-04T01:07:25.352Z,1019.14
2019-02-04T01:08:25.339Z,1019.17
2019-02-04T01:09:25.326Z,1019.19
2019-02-04T01:10:25.314Z,1019.13
2019-02-04T01:11:25.301Z,1019.17
2019-02-04T01:12:25.291Z,1019.18
2019-02-04T01:13:25.279Z,1019.22
2019-02-04T01:14:25.264Z,1019.20
2019-02-04T01:15:25.250Z,1019.20
2019-02-04T01:16:25.239Z,1019.23
2019-02-04T01:17:25.224Z,1019.24
2019-02-04T01:18:25.213Z,1019.23
2019-02-04T01:19:25.200Z,1019.21
2019-02-04T01:20:25.187Z,1019.26
2019-02-04T01:21:25.173Z,1019.28
2019-02-04T01:22:25.165Z,1019.28
2019-02-04T01:23:25.152Z,1019.28
2019-02-04T01:24:25.152Z,1019.28
2019-02-04T01:25:25.130Z,1019.35
2019-02-04T01:26:25.113Z,1019.41
2019-02-04T01:27:25.100Z,1019.39
2019-02-04T01:28:25.089Z,1019.44
2019-02-04T01:29:25.083Z,1019.43
2019-02-04T01:30:25.062Z,1019.45
2019-02-04T01:31:25.049Z,1019.44
2019-02-04T01:32:25.036Z,1019.48
2019-02-04T01:33:25.024Z,1019.55
2019-02-04T01:34:25.012Z,1019.54
2019-02-04T01:35:25.001Z,1019.54
2019-02-04T01:36:24.988Z,1019.55
2019-02-04T01:37:24.973Z,1019.56
2019-02-04T01:38:24.961Z,1019.59
2019-02-04T01:39:24.949Z,1019.59
2019-02-04T01:40:24.935Z,1019.62
2019-02-04T01:41:24.921Z,1019.60
2019-02-04T01:42:24.914Z,1019.63
2019-02-04T01:43:24.898Z,1019.63
2019-02-04T01:44:24.888Z,1019.65
2019-02-04T01:45:24.872Z,1019.61
2019-02-04T01:46:24.860Z,1019.61
2019-02-04T01:47:24.848Z,1019.65
2019-02-04T01:48:24.833Z,1019.70
2019-02-04T01:49:24.825Z,1019.66
2019-02-04T01:50:24.812Z,1019.70
2019-02-04T01:51:24.796Z,1019.71
2019-02-04T01:52:24.787Z,1019.74
2019-02-04T01:53:24.882Z,1019.76
2019-02-04T01:54:24.759Z,1019.73
2019-02-04T01:55:24.747Z,1019.74
2019-02-04T01:56:24.736Z,1019.77
2019-02-04T01:57:24.724Z,1019.79
2019-02-04T01:58:24.708Z,1019.77
2019-02-04T01:59:24.697Z,1019.80
2019-02-04T02:00:24.685Z,1019.80
2019-02-04T02:01:24.671Z,1019.82
2019-02-04T02:02:24.663Z,1019.82
2019-02-04T02:03:24.649Z,1019.90
2019-02-04T02:04:24.636Z,1019.88
2019-02-04T02:05:24.621Z,1019.90
2019-02-04T02:06:24.612Z,1019.88
2019-02-04T02:07:24.595Z,1019.82
2019-02-04T02:08:24.585Z,1019.84
2019-02-04T02:09:24.571Z,1019.83
2019-02-04T02:10:24.561Z,1019.88
2019-02-04T02:11:24.548Z,1019.89
2019-02-04T02:12:24.532Z,1019.91
2019-02-04T02:13:24.521Z,1019.90
2019-02-04T02:14:24.508Z,1019.94
2019-02-04T02:15:24.494Z,1019.92
2019-02-04T02:16:24.483Z,1019.96
2019-02-04T02:17:26.427Z,1019.98
2019-02-04T02:18:24.457Z,1019.98
2019-02-04T02:19:24.443Z,1019.95
2019-02-04T02:20:24.431Z,1019.99
2019-02-04T02:21:24.422Z,1019.98
2019-02-04T02:22:24.408Z,1020.00
2019-02-04T02:23:24.393Z,1020.02
2019-02-04T02:24:24.380Z,1019.99
2019-02-04T02:25:24.465Z,1020.01
2019-02-04T02:26:24.356Z,1020.03
2019-02-04T02:27:24.341Z,1020.08
2019-02-04T02:28:24.330Z,1020.07
2019-02-04T02:29:24.392Z,1020.05
2019-02-04T02:30:24.309Z,1020.09
2019-02-04T02:31:24.291Z,1020.10
2019-02-04T02:32:24.279Z,1020.11
2019-02-04T02:33:24.267Z,1020.13
2019-02-04T02:34:24.258Z,1020.16
2019-02-04T02:35:24.240Z,1020.18
2019-02-04T02:36:24.343Z,1020.17
2019-02-04T02:37:24.216Z,1020.21
2019-02-04T02:38:24.203Z,1020.18
2019-02-04T02:39:24.192Z,1020.24
2019-02-04T02:40:24.181Z,1020.22
2019-02-04T02:41:24.167Z,1020.25
2019-02-04T02:42:24.151Z,1020.22
2019-02-04T02:43:24.141Z,1020.27
2019-02-04T02:44:24.127Z,1020.27
2019-02-04T02:45:24.113Z,1020.29
2019-02-04T02:46:24.102Z,1020.33
2019-02-04T02:47:24.088Z,1020.32
2019-02-04T02:48:24.077Z,1020.32
2019-02-04T02:49:24.065Z,1020.32
2019-02-04T02:50:24.051Z,1020.40
2019-02-04T02:51:24.038Z,1020.41
2019-02-04T02:52:24.027Z,1020.38
2019-02-04T02:53:24.013Z,1020.40
2019-02-04T02:54:24.003Z,1020.44
2019-02-04T02:55:23.991Z,1020.42
2019-02-04T02:56:23.977Z,1020.47
2019-02-04T02:57:23.963Z,1020.47
2019-02-04T02:58:23.952Z,1020.56
2019-02-04T02:59:23.941Z,1020.52
2019-02-04T03:00:23.927Z,1020.52
2019-02-04T03:01:23.915Z,1020.55
2019-02-04T03:02:23.901Z,1020.59
2019-02-04T03:03:23.887Z,1020.58
2019-02-04T03:04:23.877Z,1020.58
2019-02-04T03:05:23.867Z,1020.63
2019-02-04T03:06:23.851Z,1020.59
2019-02-04T03:07:23.839Z,1020.63
2019-02-04T03:08:23.827Z,1020.60
2019-02-04T03:09:23.812Z,1020.64
2019-02-04T03:10:23.803Z,1020.66
2019-02-04T03:11:23.792Z,1020.67
2019-02-04T03:12:23.777Z,1020.71
2019-02-04T03:13:23.763Z,1020.75
2019-02-04T03:14:23.754Z,1020.74
2019-02-04T03:15:23.741Z,1020.75
2019-02-04T03:16:23.726Z,1020.80
2019-02-04T03:17:23.712Z,1020.79
2019-02-04T03:18:23.702Z,1020.81
2019-02-04T03:19:23.692Z,1020.79
2019-02-04T03:20:23.676Z,1020.84
2019-02-04T03:21:23.668Z,1020.83
2019-02-04T03:22:23.657Z,1020.84
2019-02-04T03:23:23.637Z,1020.90
2019-02-04T03:24:23.627Z,1020.86
2019-02-04T03:25:23.614Z,1020.90
2019-02-04T03:26:23.602Z,1020.90
2019-02-04T03:27:23.601Z,1020.92
2019-02-04T03:28:23.578Z,1020.99
2019-02-04T03:29:23.565Z,1020.96
2019-02-04T03:30:23.552Z,1020.99
2019-02-04T03:31:23.547Z,1020.96
2019-02-04T03:32:23.528Z,1021.03
2019-02-04T03:33:23.957Z,1021.03
2019-02-04T03:34:23.501Z,1021.05
2019-02-04T03:35:23.489Z,1021.08
2019-02-04T03:36:23.476Z,1021.12
2019-02-04T03:37:23.466Z,1021.08
2019-02-04T03:38:23.452Z,1021.08
2019-02-04T03:39:23.441Z,1021.11
2019-02-04T03:40:23.427Z,1021.13
2019-02-04T03:41:23.415Z,1021.14
2019-02-04T03:42:23.401Z,1021.15
2019-02-04T03:43:23.388Z,1021.17
2019-02-04T03:44:23.377Z,1021.20
2019-02-04T03:45:23.368Z,1021.20
2019-02-04T03:46:23.351Z,1021.18
2019-02-04T03:47:23.354Z,1021.24
2019-02-04T03:48:23.327Z,1021.24
2019-02-04T03:49:23.317Z,1021.24
2019-02-04T03:50:23.300Z,1021.24
2019-02-04T03:51:23.288Z,1021.25
2019-02-04T03:52:23.278Z,1021.25
2019-02-04T03:53:23.263Z,1021.27
2019-02-04T03:54:23.250Z,1021.24
2019-02-04T03:55:23.239Z,1021.28
2019-02-04T03:56:23.227Z,1021.26
2019-02-04T03:57:23.213Z,1021.23
2019-02-04T03:58:23.203Z,1021.27
2019-02-04T03:59:23.187Z,1021.32
2019-02-04T04:00:23.177Z,1021.30
2019-02-04T04:01:23.165Z,1021.27
2019-02-04T04:02:23.150Z,1021.32
2019-02-04T04:03:23.137Z,1021.28
2019-02-04T04:04:23.127Z,1021.34
2019-02-04T04:05:23.112Z,1021.35
2019-02-04T04:06:23.099Z,1021.31
2019-02-04T04:07:23.087Z,1021.33
2019-02-04T04:08:23.195Z,1021.35
2019-02-04T04:09:23.062Z,1021.35
2019-02-04T04:10:23.052Z,1021.40
2019-02-04T04:11:23.041Z,1021.45
2019-02-04T04:12:23.026Z,1021.43
2019-02-04T04:13:23.011Z,1021.44
2019-02-04T04:14:23.000Z,1021.48
2019-02-04T04:15:22.988Z,1021.50
2019-02-04T04:16:22.975Z,1021.53
2019-02-04T04:17:22.966Z,1021.57
2019-02-04T04:18:22.950Z,1021.55
2019-02-04T04:19:23.029Z,1021.56
2019-02-04T04:20:22.925Z,1021.66
2019-02-04T04:21:22.915Z,1021.66
2019-02-04T04:22:22.901Z,1021.66
2019-02-04T04:23:22.887Z,1021.70
2019-02-04T04:24:22.875Z,1021.69
2019-02-04T04:25:22.863Z,1021.66
2019-02-04T04:26:22.851Z,1021.68
2019-02-04T04:27:22.839Z,1021.68
2019-02-04T04:28:22.825Z,1021.70
2019-02-04T04:29:22.812Z,1021.68
2019-02-04T04:30:22.799Z,1021.73
2019-02-04T04:31:22.789Z,1021.73
2019-02-04T04:32:22.780Z,1021.74
2019-02-04T04:33:22.789Z,1021.71
2019-02-04T04:34:22.750Z,1021.72
2019-02-04T04:35:22.738Z,1021.75
2019-02-04T04:36:22.726Z,1021.75
2019-02-04T04:37:22.713Z,1021.79
2019-02-04T04:38:22.704Z,1021.79
2019-02-04T04:39:22.689Z,1021.77
2019-02-04T04:40:22.678Z,1021.83
2019-02-04T04:41:22.664Z,1021.80
2019-02-04T04:42:22.651Z,1021.79
2019-02-04T04:43:22.639Z,1021.79
2019-02-04T04:44:22.629Z,1021.85
2019-02-04T04:45:22.612Z,1021.88
2019-02-04T04:46:22.601Z,1021.88
2019-02-04T04:47:22.589Z,1021.89
2019-02-04T04:48:26.700Z,1021.91
2019-02-04T04:49:22.567Z,1021.91
2019-02-04T04:50:22.552Z,1021.93
2019-02-04T04:51:22.540Z,1021.94
2019-02-04T04:52:22.527Z,1021.93
2019-02-04T04:53:22.513Z,1021.98
2019-02-04T04:54:22.501Z,1021.95
2019-02-04T04:55:22.489Z,1021.90
2019-02-04T04:56:22.478Z,1021.91
2019-02-04T04:57:22.463Z,1021.91
2019-02-04T04:58:22.452Z,1021.95
2019-02-04T04:59:22.439Z,1021.97
2019-02-04T05:00:22.428Z,1021.93
2019-02-04T05:01:22.412Z,1021.95
2019-02-04T05:02:22.405Z,1021.94
2019-02-04T05:03:22.389Z,1021.95
2019-02-04T05:04:22.376Z,1021.96
2019-02-04T05:05:22.363Z,1021.96
2019-02-04T05:06:22.352Z,1021.96
2019-02-04T05:07:22.341Z,1021.95
2019-02-04T05:08:22.326Z,1021.98
2019-02-04T05:09:22.311Z,1021.94
2019-02-04T05:10:22.299Z,1021.97
2019-02-04T05:11:22.299Z,1021.97
2019-02-04T05:12:22.275Z,1022.00
2019-02-04T05:13:22.261Z,1021.99
2019-02-04T05:14:22.250Z,1022.04
2019-02-04T05:15:22.238Z,1022.01
2019-02-04T05:16:22.224Z,1022.04
2019-02-04T05:17:22.225Z,1022.07
2019-02-04T05:18:22.205Z,1022.03
2019-02-04T05:19:22.187Z,1022.02
2019-02-04T05:20:22.174Z,1022.05
2019-02-04T05:21:22.162Z,1022.06
2019-02-04T05:22:22.148Z,1022.07
2019-02-04T05:23:22.229Z,1022.06
2019-02-04T05:24:22.124Z,1022.08
2019-02-04T05:25:22.235Z,1022.12
2019-02-04T05:26:22.098Z,1022.11
2019-02-04T05:27:22.087Z,1022.14
2019-02-04T05:28:22.075Z,1022.15
2019-02-04T05:29:22.062Z,1022.15
2019-02-04T05:30:22.049Z,1022.18
2019-02-04T05:31:22.036Z,1022.20
2019-02-04T05:32:22.026Z,1022.19
2019-02-04T05:33:22.015Z,1022.24
2019-02-04T05:34:22.001Z,1022.23
2019-02-04T05:35:21.987Z,1022.24
2019-02-04T05:36:21.975Z,1022.24
2019-02-04T05:37:21.962Z,1022.23
2019-02-04T05:38:21.952Z,1022.26
2019-02-04T05:39:21.938Z,1022.24
2019-02-04T05:40:21.926Z,1022.26
2019-02-04T05:41:21.916Z,1022.31
2019-02-04T05:42:21.900Z,1022.27
2019-02-04T05:43:21.889Z,1022.29
2019-02-04T05:44:21.878Z,1022.30
2019-02-04T05:45:21.896Z,1022.30
2019-02-04T05:46:21.851Z,1022.34
2019-02-04T05:47:21.856Z,1022.35
2019-02-04T05:48:21.827Z,1022.36
2019-02-04T05:49:21.813Z,1022.34
2019-02-04T05:50:21.807Z,1022.36
2019-02-04T05:51:21.789Z,1022.39
2019-02-04T05:52:21.777Z,1022.39
2019-02-04T05:53:21.763Z,1022.40
2019-02-04T05:54:21.755Z,1022.38
2019-02-04T05:55:21.741Z,1022.40
2019-02-04T05:56:21.727Z,1022.45
2019-02-04T05:57:21.715Z,1022.44
2019-02-04T05:58:21.704Z,1022.42
2019-02-04T05:59:21.689Z,1022.46
2019-02-04T06:00:21.677Z,1022.45
2019-02-04T06:01:21.664Z,1022.50
2019-02-04T06:02:21.650Z,1022.46
2019-02-04T06:03:21.640Z,1022.47
2019-02-04T06:04:21.635Z,1022.50
2019-02-04T06:05:21.616Z,1022.49
2019-02-04T06:06:21.603Z,1022.46
2019-02-04T06:07:21.599Z,1022.48
2019-02-04T06:08:21.578Z,1022.52
2019-02-04T06:09:21.565Z,1022.52
2019-02-04T06:10:21.552Z,1022.58
2019-02-04T06:11:21.541Z,1022.56
2019-02-04T06:12:21.528Z,1022.52
2019-02-04T06:13:21.516Z,1022.57
2019-02-04T06:14:21.505Z,1022.57
2019-02-04T06:15:21.490Z,1022.58
2019-02-04T06:16:21.479Z,1022.63
2019-02-04T06:17:21.469Z,1022.58
2019-02-04T06:18:21.454Z,1022.69
2019-02-04T06:19:21.439Z,1022.67
2019-02-04T06:20:21.428Z,1022.71
2019-02-04T06:21:21.414Z,1022.72
2019-02-04T06:22:21.403Z,1022.75
2019-02-04T06:23:21.389Z,1022.78
2019-02-04T06:24:21.376Z,1022.75
2019-02-04T06:25:21.367Z,1022.78
2019-02-04T06:26:21.350Z,1022.78
2019-02-04T06:27:21.338Z,1022.80
2019-02-04T06:28:21.325Z,1022.81
2019-02-04T06:29:21.316Z,1022.85
2019-02-04T06:30:21.304Z,1022.83
2019-02-04T06:31:21.287Z,1022.84
2019-02-04T06:32:21.274Z,1022.84
2019-02-04T06:33:21.261Z,1022.89
2019-02-04T06:34:21.249Z,1022.87
2019-02-04T06:35:21.235Z,1022.85
2019-02-04T06:36:21.229Z,1022.90
2019-02-04T06:37:21.211Z,1022.88
2019-02-04T06:38:21.198Z,1022.88
2019-02-04T06:39:21.184Z,1022.91
2019-02-04T06:40:21.172Z,1022.87
2019-02-04T06:41:21.160Z,1022.88
2019-02-04T06:42:21.149Z,1022.86
2019-02-04T06:43:21.136Z,1022.88
2019-02-04T06:44:21.123Z,1022.89
2019-02-04T06:45:21.107Z,1022.89
2019-02-04T06:46:21.095Z,1022.91
2019-02-04T06:47:21.086Z,1022.98
2019-02-04T06:48:21.074Z,1022.95
2019-02-04T06:49:21.058Z,1022.98
2019-02-04T06:50:21.048Z,1022.98
2019-02-04T06:51:21.034Z,1023.01
2019-02-04T06:52:21.022Z,1023.02
2019-02-04T06:53:21.005Z,1023.04
2019-02-04T06:54:20.993Z,1023.06
2019-02-04T06:55:20.981Z,1023.04
2019-02-04T06:56:20.971Z,1023.05
2019-02-04T06:57:20.956Z,1023.05
2019-02-04T06:58:20.947Z,1023.07
2019-02-04T06:59:20.932Z,1023.07
2019-02-04T07:00:20.919Z,1023.09
2019-02-04T07:01:20.905Z,1023.08
2019-02-04T07:02:20.892Z,1023.08
2019-02-04T07:03:20.880Z,1023.07
2019-02-04T07:04:20.867Z,1023.11
2019-02-04T07:05:20.853Z,1023.10
2019-02-04T07:06:20.842Z,1023.15
2019-02-04T07:07:20.829Z,1023.13
2019-02-04T07:08:20.817Z,1023.17
2019-02-04T07:09:20.803Z,1023.18
2019-02-04T07:10:20.793Z,1023.16
2019-02-04T07:11:20.782Z,1023.14
2019-02-04T07:12:20.767Z,1023.15
2019-02-04T07:13:20.747Z,1023.21
2019-02-04T07:14:20.739Z,1023.21
2019-02-04T07:15:20.732Z,1023.21
2019-02-04T07:16:20.719Z,1023.23
2019-02-04T07:17:20.704Z,1023.21
2019-02-04T07:18:20.692Z,1023.22
2019-02-04T07:19:24.209Z,1023.23
2019-02-04T07:20:20.667Z,1023.22
2019-02-04T07:21:21.194Z,1023.24
2019-02-04T07:22:20.642Z,1023.19
2019-02-04T07:23:20.630Z,1023.23
2019-02-04T07:24:20.616Z,1023.20
2019-02-04T07:25:20.647Z,1023.26
2019-02-04T07:26:20.591Z,1023.28
2019-02-04T07:27:22.454Z,1023.24
2019-02-04T07:28:20.569Z,1023.31
2019-02-04T07:29:20.554Z,1023.31
2019-02-04T07:30:20.540Z,1023.30
2019-02-04T07:31:20.529Z,1023.34
2019-02-04T07:32:20.519Z,1023.35
2019-02-04T07:33:20.510Z,1023.36
2019-02-04T07:34:20.492Z,1023.38
2019-02-04T07:35:20.478Z,1023.40
2019-02-04T07:36:20.467Z,1023.40
2019-02-04T07:37:20.458Z,1023.40
2019-02-04T07:38:20.442Z,1023.40
2019-02-04T07:39:20.439Z,1023.38
2019-02-04T07:40:20.417Z,1023.40
2019-02-04T07:41:20.415Z,1023.36
2019-02-04T07:42:20.395Z,1023.38
2019-02-04T07:43:20.382Z,1023.40
2019-02-04T07:44:20.369Z,1023.41
2019-02-04T07:45:20.355Z,1023.36
2019-02-04T07:46:20.343Z,1023.41
2019-02-04T07:47:20.334Z,1023.40
2019-02-04T07:48:20.320Z,1023.41
2019-02-04T07:49:20.307Z,1023.40
2019-02-04T07:50:20.295Z,1023.39
2019-02-04T07:51:20.288Z,1023.40
2019-02-04T07:52:20.271Z,1023.39
2019-02-04T07:53:20.261Z,1023.38
2019-02-04T07:54:20.247Z,1023.38
2019-02-04T07:55:20.236Z,1023.38
2019-02-04T07:56:20.221Z,1023.37
2019-02-04T07:57:20.207Z,1023.44
2019-02-04T07:58:20.195Z,1023.41
2019-02-04T07:59:20.184Z,1023.45
2019-02-04T08:00:20.173Z,1023.46
2019-02-04T08:01:20.159Z,1023.45
2019-02-04T08:02:20.150Z,1023.44
2019-02-04T08:03:20.135Z,1023.42
2019-02-04T08:04:20.122Z,1023.42
2019-02-04T08:05:20.112Z,1023.39
2019-02-04T08:06:20.099Z,1023.43
2019-02-04T08:07:20.089Z,1023.44
2019-02-04T08:08:20.073Z,1023.47
2019-02-04T08:09:20.061Z,1023.46
2019-02-04T08:10:20.049Z,1023.43
2019-02-04T08:11:20.039Z,1023.42
2019-02-04T08:12:20.027Z,1023.44
2019-02-04T08:13:20.014Z,1023.48
2019-02-04T08:14:20.001Z,1023.47
2019-02-04T08:15:19.990Z,1023.44
2019-02-04T08:16:19.978Z,1023.50
2019-02-04T08:17:19.963Z,1023.48
2019-02-04T08:18:19.951Z,1023.48
2019-02-04T08:19:19.943Z,1023.49
2019-02-04T08:20:22.623Z,1023.49
2019-02-04T08:21:19.917Z,1023.49
2019-02-04T08:22:19.905Z,1023.48
2019-02-04T08:23:19.894Z,1023.44
2019-02-04T08:24:19.880Z,1023.46
2019-02-04T08:25:19.871Z,1023.49
2019-02-04T08:26:19.858Z,1023.51
2019-02-04T08:27:19.842Z,1023.57
2019-02-04T08:28:19.832Z,1023.54
2019-02-04T08:29:19.819Z,1023.55
2019-02-04T08:30:19.810Z,1023.58
2019-02-04T08:31:19.797Z,1023.64
2019-02-04T08:32:19.786Z,1023.65
2019-02-04T08:33:19.772Z,1023.57
2019-02-04T08:34:19.763Z,1023.60
2019-02-04T08:35:19.749Z,1023.64
2019-02-04T08:36:19.740Z,1023.62
2019-02-04T08:37:19.725Z,1023.62
2019-02-04T08:38:19.717Z,1023.62
2019-02-04T08:39:19.700Z,1023.59
2019-02-04T08:40:19.692Z,1023.58
2019-02-04T08:41:19.677Z,1023.56
2019-02-04T08:42:19.666Z,1023.58
2019-02-04T08:43:19.654Z,1023.61
2019-02-04T08:44:19.642Z,1023.60
2019-02-04T08:45:19.628Z,1023.57
2019-02-04T08:46:19.617Z,1023.57
2019-02-04T08:47:22.909Z,1023.60
2019-02-04T08:48:19.597Z,1023.57
2019-02-04T08:49:19.582Z,1023.59
2019-02-04T08:50:19.571Z,1023.58
2019-02-04T08:51:19.557Z,1023.56
2019-02-04T08:52:19.547Z,1023.59
2019-02-04T08:53:19.535Z,1023.61
2019-02-04T08:54:19.525Z,1023.62
2019-02-04T08:55:19.514Z,1023.61
2019-02-04T08:56:19.500Z,1023.59
2019-02-04T08:57:19.488Z,1023.60
2019-02-04T08:58:19.477Z,1023.59
2019-02-04T08:59:19.465Z,1023.55
2019-02-04T09:00:19.488Z,1023.59
2019-02-04T09:01:19.440Z,1023.59
2019-02-04T09:02:19.429Z,1023.64
2019-02-04T09:03:19.420Z,1023.63
2019-02-04T09:04:19.407Z,1023.65
2019-02-04T09:05:19.397Z,1023.67
2019-02-04T09:06:19.382Z,1023.65
2019-02-04T09:07:19.375Z,1023.69
2019-02-04T09:08:19.359Z,1023.69
2019-02-04T09:09:19.341Z,1023.68
2019-02-04T09:10:19.357Z,1023.70
2019-02-04T09:11:19.332Z,1023.66
2019-02-04T09:12:19.318Z,1023.68
2019-02-04T09:13:19.300Z,1023.69
2019-02-04T09:14:19.291Z,1023.64
2019-02-04T09:15:19.279Z,1023.67
2019-02-04T09:16:19.267Z,1023.65
2019-02-04T09:17:19.256Z,1023.69
2019-02-04T09:18:19.242Z,1023.67
2019-02-04T09:19:19.233Z,1023.71
2019-02-04T09:20:19.221Z,1023.66
2019-02-04T09:21:19.216Z,1023.67
2019-02-04T09:22:19.197Z,1023.68
2019-02-04T09:23:19.186Z,1023.63
2019-02-04T09:24:19.175Z,1023.60
2019-02-04T09:25:19.162Z,1023.58
2019-02-04T09:26:19.151Z,1023.60
2019-02-04T09:27:19.146Z,1023.57
2019-02-04T09:28:19.128Z,1023.54
2019-02-04T09:29:19.117Z,1023.57
2019-02-04T09:30:19.106Z,1023.58
2019-02-04T09:31:19.096Z,1023.66
2019-02-04T09:32:19.074Z,1023.65
2019-02-04T09:33:19.070Z,1023.64
2019-02-04T09:34:19.058Z,1023.65
2019-02-04T09:35:19.050Z,1023.68
2019-02-04T09:36:19.038Z,1023.66
2019-02-04T09:37:19.026Z,1023.71
2019-02-04T09:38:19.016Z,1023.70
2019-02-04T09:39:19.006Z,1023.69
2019-02-04T09:40:18.995Z,1023.63
2019-02-04T09:41:18.984Z,1023.63
2019-02-04T09:42:18.973Z,1023.60
2019-02-04T09:43:18.958Z,1023.56
2019-02-04T09:44:18.949Z,1023.58
2019-02-04T09:45:18.934Z,1023.58
2019-02-04T09:46:18.926Z,1023.58
2019-02-04T09:47:18.913Z,1023.55
2019-02-04T09:48:18.904Z,1023.58
2019-02-04T09:49:18.894Z,1023.57
2019-02-04T09:50:21.819Z,1023.62
2019-02-04T09:51:18.934Z,1023.62
2019-02-04T09:52:18.863Z,1023.59
2019-02-04T09:53:18.848Z,1023.62
2019-02-04T09:54:18.837Z,1023.63
2019-02-04T09:55:18.825Z,1023.65
2019-02-04T09:56:18.813Z,1023.66
2019-02-04T09:57:18.899Z,1023.61
2019-02-04T09:58:18.794Z,1023.65
2019-02-04T09:59:18.780Z,1023.64
2019-02-04T10:00:18.769Z,1023.62
2019-02-04T10:01:18.758Z,1023.65
2019-02-04T10:02:18.747Z,1023.62
2019-02-04T10:03:18.769Z,1023.57
2019-02-04T10:04:18.728Z,1023.64
2019-02-04T10:05:18.716Z,1023.63
2019-02-04T10:06:18.702Z,1023.66
2019-02-04T10:07:18.694Z,1023.64
2019-02-04T10:08:18.682Z,1023.67
2019-02-04T10:09:18.670Z,1023.66
2019-02-04T10:10:18.661Z,1023.63
2019-02-04T10:11:18.648Z,1023.70
2019-02-04T10:12:18.639Z,1023.66
2019-02-04T10:13:18.625Z,1023.68
2019-02-04T10:14:18.615Z,1023.67
2019-02-04T10:15:18.613Z,1023.66
2019-02-04T10:16:18.612Z,1023.67
2019-02-04T10:17:18.587Z,1023.70
2019-02-04T10:18:18.584Z,1023.66
2019-02-04T10:19:18.586Z,1023.63
2019-02-04T10:20:18.554Z,1023.70
2019-02-04T10:21:18.549Z,1023.69
2019-02-04T10:22:18.539Z,1023.76
2019-02-04T10:23:18.530Z,1023.73
2019-02-04T10:24:18.508Z,1023.73
2019-02-04T10:25:18.537Z,1023.77
2019-02-04T10:26:18.509Z,1023.72
2019-02-04T10:27:18.511Z,1023.72
2019-02-04T10:28:18.467Z,1023.74
2019-02-04T10:29:18.493Z,1023.72
2019-02-04T10:30:18.444Z,1023.68
2019-02-04T10:31:18.435Z,1023.66
2019-02-04T10:32:18.447Z,1023.65
2019-02-04T10:33:18.410Z,1023.66
2019-02-04T10:34:18.410Z,1023.63
2019-02-04T10:35:18.390Z,1023.69
2019-02-04T10:36:18.399Z,1023.68
2019-02-04T10:37:18.381Z,1023.68
2019-02-04T10:38:18.370Z,1023.65
2019-02-04T10:39:18.351Z,1023.67
2019-02-04T10:40:18.335Z,1023.66
2019-02-04T10:41:18.352Z,1023.62
2019-02-04T10:42:18.316Z,1023.62
2019-02-04T10:43:18.340Z,1023.54
2019-02-04T10:44:18.297Z,1023.60
2019-02-04T10:45:18.286Z,1023.60
2019-02-04T10:46:18.303Z,1023.60
2019-02-04T10:47:18.266Z,1023.59
2019-02-04T10:48:18.260Z,1023.57
2019-02-04T10:49:18.249Z,1023.54
2019-02-04T10:50:18.247Z,1023.63
2019-02-04T10:51:18.239Z,1023.64
2019-02-04T10:52:18.211Z,1023.63
2019-02-04T10:53:18.207Z,1023.64
2019-02-04T10:54:18.231Z,1023.63
2019-02-04T10:55:18.185Z,1023.59
2019-02-04T10:56:18.196Z,1023.60
2019-02-04T10:57:18.162Z,1023.61
2019-02-04T10:58:18.151Z,1023.58
2019-02-04T10:59:18.223Z,1023.55
2019-02-04T11:00:18.140Z,1023.58
2019-02-04T11:01:18.127Z,1023.49
2019-02-04T11:02:18.118Z,1023.52
2019-02-04T11:03:20.057Z,1023.54
2019-02-04T11:04:18.093Z,1023.49
2019-02-04T11:05:18.080Z,1023.47
2019-02-04T11:06:18.080Z,1023.48
2019-02-04T11:07:18.071Z,1023.48
2019-02-04T11:08:18.078Z,1023.49
2019-02-04T11:09:18.042Z,1023.49
2019-02-04T11:10:18.057Z,1023.47
2019-02-04T11:11:18.018Z,1023.48
2019-02-04T11:12:18.131Z,1023.45
2019-02-04T11:13:18.044Z,1023.42
2019-02-04T11:14:17.989Z,1023.40
2019-02-04T11:15:17.990Z,1023.41
2019-02-04T11:16:17.988Z,1023.43
2019-02-04T11:17:17.961Z,1023.45
2019-02-04T11:18:17.956Z,1023.43
2019-02-04T11:19:17.941Z,1023.47
2019-02-04T11:20:17.929Z,1023.46
2019-02-04T11:21:17.937Z,1023.49
2019-02-04T11:22:18.082Z,1023.47
2019-02-04T11:23:17.942Z,1023.48
2019-02-04T11:24:17.888Z,1023.47
2019-02-04T11:25:17.900Z,1023.48
2019-02-04T11:26:17.898Z,1023.52
2019-02-04T11:27:17.858Z,1023.47
2019-02-04T11:28:17.914Z,1023.51
2019-02-04T11:29:18.863Z,1023.48
2019-02-04T11:30:17.827Z,1023.49
2019-02-04T11:31:17.866Z,1023.52
2019-02-04T11:32:17.809Z,1023.50
2019-02-04T11:33:17.825Z,1023.49
2019-02-04T11:34:17.788Z,1023.48
2019-02-04T11:35:17.814Z,1023.54
2019-02-04T11:36:17.928Z,1023.52
2019-02-04T11:37:17.791Z,1023.47
2019-02-04T11:38:17.754Z,1023.47
2019-02-04T11:39:17.781Z,1023.49
2019-02-04T11:40:17.759Z,1023.48
2019-02-04T11:41:17.747Z,1023.51
2019-02-04T11:42:17.740Z,1023.45
2019-02-04T11:43:17.720Z,1023.46
2019-02-04T11:44:17.704Z,1023.51
2019-02-04T11:45:17.685Z,1023.51
2019-02-04T11:46:17.694Z,1023.52
2019-02-04T11:47:17.663Z,1023.49
2019-02-04T11:48:17.764Z,1023.49
2019-02-04T11:49:17.643Z,1023.49
2019-02-04T11:50:17.633Z,1023.45
2019-02-04T11:51:17.625Z,1023.38
2019-02-04T11:52:17.616Z,1023.40
2019-02-04T11:53:17.605Z,1023.36
2019-02-04T11:54:17.596Z,1023.33
2019-02-04T11:55:17.591Z,1023.33
2019-02-04T11:56:17.577Z,1023.34
2019-02-04T11:57:17.682Z,1023.37
2019-02-04T11:58:17.557Z,1023.36
2019-02-04T11:59:17.547Z,1023.36
2019-02-04T12:00:17.539Z,1023.36
2019-02-04T12:01:17.528Z,1023.35
2019-02-04T12:02:17.520Z,1023.35
2019-02-04T12:03:17.514Z,1023.34
2019-02-04T12:04:17.503Z,1023.37
2019-02-04T12:05:17.490Z,1023.36